Time;durP1;ratioP1;P1;durP2;ratioP2;P2;SDS_P1;SDS_P2;PMS_P1;PMS_P2;Temp;Humidity;BMP_temperature;BMP_pressure;BME280_temperature;BME280_humidity;BME280_pressure;Samples;Min_cycle;Max_cycle;Signal;HPM_P1;HPM_P2
2023/11/28 00:01:52;;;;;;;8.55;7.75;;;2.60;91.80;;;;;;5096407;28;20374;-75
2023/11/28 00:04:17;;;;;;;9.48;8.57;;;2.60;91.60;;;;;;5075408;28;20406;-76
2023/11/28 00:06:43;;;;;;;9.02;8.23;;;2.60;92.90;;;;;;5093104;28;20434;-75
2023/11/28 00:09:10;;;;;;;9.57;8.67;;;2.60;91.20;;;;;;5092265;28;20466;-77
2023/11/28 00:11:36;;;;;;;9.00;8.20;;;2.60;91.10;;;;;;5093068;28;20442;-75
2023/11/28 00:14:02;;;;;;;9.63;8.70;;;2.60;89.80;;;;;;5093676;28;20872;-77
2023/11/28 00:16:27;;;;;;;8.95;8.15;;;2.60;90.30;;;;;;5093817;28;20829;-75
2023/11/28 00:18:53;;;;;;;8.75;7.95;;;2.60;90.10;;;;;;5094638;28;20413;-76
2023/11/28 00:21:18;;;;;;;8.50;7.80;;;2.60;89.90;;;;;;5094223;28;20741;-77
2023/11/28 00:23:44;;;;;;;8.03;7.33;;;2.60;90.30;;;;;;5095832;28;20378;-75
2023/11/28 00:26:10;;;;;;;8.00;7.30;;;2.70;90.60;;;;;;5096659;28;20430;-75
2023/11/28 00:28:35;;;;;;;7.28;6.68;;;2.60;90.10;;;;;;5094542;28;20764;-76
2023/11/28 00:31:01;;;;;;;7.30;6.70;;;2.70;88.60;;;;;;5094348;28;20473;-77
2023/11/28 00:33:26;;;;;;;6.70;6.20;;;2.70;89.50;;;;;;5076699;28;20840;-77
2023/11/28 00:35:52;;;;;;;6.70;6.20;;;2.70;89.30;;;;;;5094387;28;20465;-76
2023/11/28 00:38:18;;;;;;;6.07;5.68;;;2.70;87.00;;;;;;5094582;28;20413;-75
2023/11/28 00:40:44;;;;;;;6.50;6.00;;;2.70;86.70;;;;;;5094754;28;20753;-77
2023/11/28 00:43:10;;;;;;;6.80;6.30;;;2.70;87.50;;;;;;5093703;28;20775;-76
2023/11/28 00:45:38;;;;;;;6.70;6.20;;;2.70;87.00;;;;;;5093410;28;20384;-75
2023/11/28 00:48:05;;;;;;;7.05;6.55;;;2.70;86.70;;;;;;5093161;28;20421;-76
2023/11/28 00:50:31;;;;;;;6.70;6.20;;;2.70;88.30;;;;;;5092034;28;20451;-76
2023/11/28 00:52:56;;;;;;;6.67;6.17;;;2.70;88.30;;;;;;5092501;28;20401;-76
2023/11/28 00:55:23;;;;;;;7.03;6.50;;;2.70;86.80;;;;;;5092608;28;20377;-75
2023/11/28 00:57:49;;;;;;;7.80;7.20;;;2.80;88.30;;;;;;5073827;28;20767;-76
2023/11/28 01:00:15;;;;;;;7.60;7.00;;;2.80;86.90;;;;;;5091983;28;20477;-77
2023/11/28 01:02:41;;;;;;;7.18;6.68;;;2.90;87.20;;;;;;5092378;28;20853;-77
2023/11/28 01:05:10;;;;;;;6.82;6.30;;;2.90;87.30;;;;;;5092690;28;20416;-77
2023/11/28 01:07:36;;;;;;;6.87;6.37;;;2.90;83.80;;;;;;5092429;28;20717;-77
2023/11/28 01:10:03;;;;;;;7.75;7.05;;;2.80;84.20;;;;;;5092709;28;20477;-76
2023/11/28 01:12:28;;;;;;;7.00;6.50;;;2.80;86.60;;;;;;5091817;28;20498;-76
2023/11/28 01:14:54;;;;;;;6.95;6.45;;;2.80;85.40;;;;;;5092001;28;20390;-77
2023/11/28 01:17:19;;;;;;;6.70;6.10;;;2.90;86.00;;;;;;5091658;28;20390;-76
2023/11/28 01:19:45;;;;;;;7.07;6.47;;;2.80;84.90;;;;;;5091498;28;20499;-74
2023/11/28 01:22:11;;;;;;;6.20;5.70;;;2.80;85.80;;;;;;5091088;28;20733;-77
2023/11/28 01:24:38;;;;;;;5.70;5.30;;;2.80;86.50;;;;;;5091799;28;20450;-76
2023/11/28 01:27:04;;;;;;;5.43;5.03;;;2.80;84.50;;;;;;5095683;28;20378;-77
2023/11/28 01:29:30;;;;;;;5.25;4.95;;;2.80;84.20;;;;;;5098084;28;20431;-76
2023/11/28 01:31:55;;;;;;;5.10;4.80;;;2.80;84.30;;;;;;5097205;28;20374;-77
2023/11/28 01:34:21;;;;;;;5.50;5.10;;;2.80;85.50;;;;;;5097577;28;20378;-77
2023/11/28 01:36:47;;;;;;;4.33;4.03;;;2.80;85.10;;;;;;5081747;28;20466;-76
2023/11/28 01:39:13;;;;;;;4.10;3.90;;;2.80;84.10;;;;;;5101156;28;20382;-75
2023/11/28 01:41:39;;;;;;;4.00;3.70;;;2.80;86.20;;;;;;5101369;28;20385;-76
2023/11/28 01:44:08;;;;;;;4.03;3.83;;;2.80;83.20;;;;;;5075498;28;20398;-76
2023/11/28 01:46:35;;;;;;;4.00;3.80;;;2.80;84.50;;;;;;5095895;28;20386;-75
2023/11/28 01:49:02;;;;;;;3.90;3.70;;;2.80;84.80;;;;;;5094711;28;20952;-76
2023/11/28 01:51:29;;;;;;;3.80;3.60;;;2.80;86.10;;;;;;5091984;28;20389;-77
2023/11/28 01:53:58;;;;;;;3.42;3.22;;;2.80;83.50;;;;;;5074228;28;20394;-76
2023/11/28 01:56:24;;;;;;;3.50;3.30;;;2.90;82.50;;;;;;5091376;28;20408;-75
2023/11/28 01:58:51;;;;;;;3.20;3.10;;;2.80;82.50;;;;;;5091551;28;20382;-76
2023/11/28 02:01:18;;;;;;;3.40;3.20;;;2.80;81.90;;;;;;5091546;28;20409;-77
2023/11/28 02:03:44;;;;;;;2.90;2.80;;;2.70;82.40;;;;;;5092913;28;20378;-77
2023/11/28 02:06:10;;;;;;;3.30;3.10;;;2.70;83.70;;;;;;5095299;28;20469;-77
2023/11/28 02:08:36;;;;;;;3.53;3.33;;;2.70;84.30;;;;;;5099982;28;20563;-76
2023/11/28 02:11:02;;;;;;;3.60;3.40;;;2.70;87.20;;;;;;5100543;28;20400;-76
2023/11/28 02:13:30;;;;;;;3.78;3.50;;;2.80;87.40;;;;;;5102591;28;20457;-77
2023/11/28 02:15:56;;;;;;;3.60;3.30;;;2.80;85.90;;;;;;5093030;28;20799;-77
2023/11/28 02:18:21;;;;;;;4.07;3.77;;;2.70;83.20;;;;;;5092723;28;20382;-75
2023/11/28 02:20:47;;;;;;;3.70;3.50;;;2.70;87.70;;;;;;5093485;28;20414;-76
2023/11/28 02:23:12;;;;;;;3.90;3.60;;;2.70;85.70;;;;;;5092322;28;20378;-76
2023/11/28 02:25:49;;;;;;;4.03;3.83;;;2.60;82.60;;;;;;5091253;28;20378;-77
2023/11/28 02:28:25;;;;;;;4.30;4.10;;;2.70;87.60;;;;;;5091438;28;20749;-76
2023/11/28 02:30:57;;;;;;;4.30;4.10;;;2.70;86.80;;;;;;5091536;28;20378;-77
2023/11/28 02:33:23;;;;;;;4.70;4.40;;;2.70;86.10;;;;;;5094571;28;20390;-75
2023/11/28 02:35:49;;;;;;;4.43;4.22;;;2.70;87.20;;;;;;5096517;28;20384;-76
2023/11/28 02:38:15;;;;;;;4.80;4.60;;;2.70;89.00;;;;;;5095811;28;20398;-76
2023/11/28 02:40:41;;;;;;;5.10;4.80;;;2.80;86.40;;;;;;5095034;28;20450;-76
2023/11/28 02:43:07;;;;;;;4.85;4.57;;;2.80;85.10;;;;;;5095280;28;20711;-77
2023/11/28 02:45:33;;;;;;;5.00;4.70;;;2.80;86.70;;;;;;5077526;28;20898;-76
2023/11/28 02:47:58;;;;;;;5.15;4.78;;;2.80;83.50;;;;;;5095445;28;20377;-77
2023/11/28 02:50:24;;;;;;;5.57;5.28;;;2.80;83.30;;;;;;5095004;28;20939;-76
2023/11/28 02:52:50;;;;;;;5.80;5.40;;;2.80;83.10;;;;;;5077010;28;20394;-77
2023/11/28 02:55:16;;;;;;;5.80;5.40;;;2.70;80.40;;;;;;5096881;28;20457;-77
2023/11/28 02:57:41;;;;;;;6.40;6.00;;;2.70;80.50;;;;;;5096318;28;20418;-76
2023/11/28 03:00:08;;;;;;;6.10;5.70;;;2.80;83.10;;;;;;5095959;28;20381;-76
2023/11/28 03:02:35;;;;;;;6.20;5.80;;;2.80;79.60;;;;;;5095365;28;20382;-76
2023/11/28 03:05:01;;;;;;;6.85;6.35;;;2.80;80.10;;;;;;5077185;28;20425;-76
2023/11/28 03:07:27;;;;;;;6.93;6.53;;;2.90;78.80;;;;;;5095514;28;20413;-76
2023/11/28 03:09:53;;;;;;;7.30;6.70;;;2.80;75.10;;;;;;5095133;28;20385;-76
2023/11/28 03:12:18;;;;;;;6.93;6.50;;;2.80;74.80;;;;;;5095471;28;20389;-76
2023/11/28 03:14:44;;;;;;;7.60;7.00;;;2.80;76.10;;;;;;5094809;28;20378;-76
2023/11/28 03:17:09;;;;;;;6.70;6.20;;;2.80;77.50;;;;;;5094714;28;20405;-77
2023/11/28 03:19:35;;;;;;;7.30;6.80;;;2.70;74.80;;;;;;5095088;28;20383;-76
2023/11/28 03:22:00;;;;;;;6.80;6.40;;;2.80;76.60;;;;;;5094937;28;20397;-77
2023/11/28 03:24:26;;;;;;;7.55;7.05;;;2.80;76.40;;;;;;5094482;28;20385;-77
2023/11/28 03:26:51;;;;;;;7.60;7.10;;;2.80;73.60;;;;;;5095117;28;20498;-77
2023/11/28 03:29:18;;;;;;;8.50;7.90;;;2.80;76.00;;;;;;5095293;28;20373;-77
2023/11/28 03:31:43;;;;;;;9.20;8.50;;;2.90;75.30;;;;;;5095057;28;20472;-77
2023/11/28 03:34:09;;;;;;;9.02;8.32;;;2.90;75.00;;;;;;5076404;28;20449;-77
2023/11/28 03:36:34;;;;;;;10.07;9.27;;;2.90;74.40;;;;;;5094996;28;20465;-76
2023/11/28 03:39:00;;;;;;;12.13;11.13;;;2.80;74.30;;;;;;5095171;28;20435;-76
2023/11/28 03:41:25;;;;;;;10.00;9.20;;;2.80;76.70;;;;;;5094786;28;20381;-76
2023/11/28 03:43:51;;;;;;;11.02;10.13;;;2.80;73.50;;;;;;5096415;28;20378;-77
2023/11/28 03:46:16;;;;;;;10.00;9.20;;;2.80;74.90;;;;;;5096794;28;20755;-75
2023/11/28 03:48:42;;;;;;;10.95;9.95;;;2.80;73.30;;;;;;5078157;28;20390;-76
2023/11/28 03:51:08;;;;;;;10.20;9.40;;;2.80;71.70;;;;;;5097230;28;20390;-75
2023/11/28 03:53:35;;;;;;;10.85;9.75;;;2.90;72.60;;;;;;5101221;28;20386;-77
2023/11/28 03:56:08;;;;;;;11.48;10.57;;;2.90;73.30;;;;;;5077152;28;20756;-76
2023/11/28 03:58:34;;;;;;;12.60;11.55;;;3.00;73.00;;;;;;5095363;28;20469;-76
2023/11/28 04:01:00;;;;;;;14.07;12.77;;;3.00;73.20;;;;;;5095206;28;20385;-76
2023/11/28 04:03:26;;;;;;;14.17;12.97;;;3.00;71.80;;;;;;5095052;28;20378;-77
2023/11/28 04:05:52;;;;;;;14.05;12.95;;;3.00;73.70;;;;;;5094919;28;20380;-77
2023/11/28 04:08:17;;;;;;;13.60;12.50;;;2.90;74.40;;;;;;5095880;28;20447;-77
2023/11/28 04:10:43;;;;;;;14.20;12.90;;;3.00;72.40;;;;;;5094800;28;20425;-76
2023/11/28 04:13:09;;;;;;;11.68;10.73;;;3.00;72.10;;;;;;5095045;28;20390;-76
2023/11/28 04:15:34;;;;;;;13.57;12.38;;;3.00;70.40;;;;;;5094218;28;20903;-77
2023/11/28 04:18:03;;;;;;;12.83;11.73;;;3.00;70.60;;;;;;5075878;28;20972;-76
2023/11/28 04:20:28;;;;;;;12.80;11.70;;;3.00;67.70;;;;;;5093953;28;20414;-76
2023/11/28 04:22:54;;;;;;;11.97;11.07;;;2.90;69.20;;;;;;5094211;28;20836;-77
2023/11/28 04:25:19;;;;;;;13.33;12.13;;;2.90;69.10;;;;;;5076685;28;20986;-77
2023/11/28 04:27:45;;;;;;;15.50;14.10;;;2.90;70.70;;;;;;5094567;28;20749;-75
2023/11/28 04:30:11;;;;;;;15.88;14.45;;;2.90;70.70;;;;;;5077244;28;20390;-77
2023/11/28 04:32:37;;;;;;;17.10;15.60;;;2.80;71.50;;;;;;5094414;28;20382;-76
2023/11/28 04:35:03;;;;;;;17.42;15.93;;;2.80;74.10;;;;;;5094242;28;20749;-76
2023/11/28 04:37:29;;;;;;;16.80;15.40;;;2.80;74.00;;;;;;5094489;28;20402;-76
2023/11/28 04:39:55;;;;;;;17.60;15.90;;;2.80;72.20;;;;;;5096303;28;20374;-77
2023/11/28 04:42:21;;;;;;;15.68;14.27;;;2.80;73.20;;;;;;5079123;28;20397;-76
2023/11/28 04:44:46;;;;;;;17.20;15.80;;;2.80;71.70;;;;;;5097045;28;20758;-77
2023/11/28 04:47:12;;;;;;;17.20;15.70;;;2.80;74.50;;;;;;5084027;28;20389;-76
2023/11/28 04:49:37;;;;;;;16.70;15.20;;;2.90;74.30;;;;;;5107588;28;20458;-76
2023/11/28 04:52:03;;;;;;;16.20;14.80;;;3.00;71.40;;;;;;5107404;28;20451;-76
2023/11/28 04:54:29;;;;;;;16.05;14.55;;;3.00;69.90;;;;;;5094053;28;20386;-77
2023/11/28 04:56:55;;;;;;;17.00;15.50;;;2.90;69.10;;;;;;5093597;28;20478;-77
2023/11/28 04:59:20;;;;;;;16.17;14.77;;;3.00;70.70;;;;;;5093950;28;20378;-78
2023/11/28 05:01:47;;;;;;;16.17;14.67;;;3.00;70.00;;;;;;5078251;28;20378;-77
2023/11/28 05:04:15;;;;;;;16.58;14.98;;;2.90;69.00;;;;;;5094834;28;20409;-76
2023/11/28 05:06:42;;;;;;;16.17;14.57;;;2.80;70.70;;;;;;5094341;28;20390;-78
2023/11/28 05:09:08;;;;;;;15.30;13.90;;;2.80;69.10;;;;;;5095438;28;20515;-78
2023/11/28 05:11:33;;;;;;;15.57;14.13;;;2.80;70.40;;;;;;5096805;28;20913;-77
2023/11/28 05:13:59;;;;;;;14.90;13.60;;;2.80;68.50;;;;;;5102218;28;20390;-76
2023/11/28 05:16:25;;;;;;;15.43;14.02;;;2.80;69.00;;;;;;5085173;28;20398;-75
2023/11/28 05:18:51;;;;;;;16.13;14.63;;;2.80;69.60;;;;;;5106360;28;20383;-74
2023/11/28 05:21:17;;;;;;;16.20;14.60;;;2.80;70.00;;;;;;5107234;28;20517;-75
2023/11/28 05:23:43;;;;;;;16.20;14.60;;;2.80;68.40;;;;;;5108011;28;20382;-75
2023/11/28 05:26:09;;;;;;;16.00;14.50;;;2.90;68.80;;;;;;5106360;28;20385;-77
2023/11/28 05:28:35;;;;;;;16.38;14.88;;;2.80;67.20;;;;;;5087405;28;20392;-76
2023/11/28 05:31:00;;;;;;;15.43;14.03;;;2.90;67.40;;;;;;5089506;28;20414;-77
2023/11/28 05:33:26;;;;;;;14.90;13.30;;;2.80;67.10;;;;;;5108595;28;20382;-75
2023/11/28 05:35:52;;;;;;;14.30;13.00;;;2.80;66.50;;;;;;5110690;28;20496;-75
2023/11/28 05:38:17;;;;;;;14.80;13.30;;;2.80;65.50;;;;;;5108755;28;20819;-76
2023/11/28 05:40:43;;;;;;;13.90;12.60;;;2.80;66.70;;;;;;5106748;28;20390;-77
2023/11/28 05:43:08;;;;;;;14.90;13.60;;;2.80;64.70;;;;;;5105455;28;20385;-77
2023/11/28 05:45:34;;;;;;;15.00;13.60;;;2.80;65.90;;;;;;5108099;28;20378;-75
2023/11/28 05:48:00;;;;;;;15.10;13.60;;;2.90;67.80;;;;;;5105406;28;20468;-77
2023/11/28 05:50:25;;;;;;;13.93;12.63;;;3.00;65.30;;;;;;5105538;28;20450;-76
2023/11/28 05:52:52;;;;;;;13.13;11.83;;;3.00;64.00;;;;;;5120408;22;20435;-71
2023/11/28 05:55:20;;;;;;;13.52;12.23;;;3.00;61.90;;;;;;5111086;28;20402;-71
2023/11/28 05:57:46;;;;;;;14.70;13.20;;;3.00;62.70;;;;;;5111022;28;20396;-71
2023/11/28 06:00:12;;;;;;;14.38;12.95;;;3.00;63.00;;;;;;5110720;28;20384;-71
2023/11/28 06:02:39;;;;;;;15.20;13.70;;;3.00;62.30;;;;;;5111028;28;20380;-71
2023/11/28 06:05:05;;;;;;;14.60;13.10;;;3.00;62.70;;;;;;5110744;28;20872;-71
2023/11/28 06:07:31;;;;;;;15.93;13.60;;;3.00;60.90;;;;;;5109818;28;20384;-71
2023/11/28 06:09:57;;;;;;;14.40;13.00;;;3.00;61.90;;;;;;5110798;28;20377;-70
2023/11/28 06:12:23;;;;;;;14.98;13.48;;;3.00;61.50;;;;;;5110572;28;20441;-71
2023/11/28 06:14:48;;;;;;;15.18;13.68;;;2.90;58.60;;;;;;5110970;28;20391;-70
2023/11/28 06:17:14;;;;;;;15.13;13.53;;;2.90;60.20;;;;;;5112112;28;20407;-72
2023/11/28 06:19:40;;;;;;;15.33;13.83;;;2.90;59.40;;;;;;5109372;28;20483;-71
2023/11/28 06:22:05;;;;;;;15.10;13.13;;;2.80;61.20;;;;;;5110505;28;20734;-72
2023/11/28 06:24:31;;;;;;;14.93;13.43;;;2.90;59.50;;;;;;5110570;28;20445;-72
2023/11/28 06:26:56;;;;;;;15.57;13.80;;;2.80;60.10;;;;;;5110550;28;20835;-71
2023/11/28 06:29:22;;;;;;;15.93;14.20;;;2.80;59.10;;;;;;5110459;28;20430;-71
2023/11/28 06:31:48;;;;;;;14.70;13.20;;;2.80;59.90;;;;;;5110509;28;20483;-71
2023/11/28 06:34:14;;;;;;;14.07;12.68;;;2.80;57.70;;;;;;5110356;28;20861;-72
2023/11/28 06:36:40;;;;;;;14.70;13.10;;;2.80;56.80;;;;;;5110872;28;20409;-72
2023/11/28 06:39:05;;;;;;;13.55;12.15;;;2.70;57.70;;;;;;5111143;28;20377;-71
2023/11/28 06:41:31;;;;;;;13.87;11.80;;;2.70;56.60;;;;;;5110853;28;20870;-72
2023/11/28 06:43:56;;;;;;;12.00;10.80;;;2.60;56.20;;;;;;5109535;28;20380;-71
2023/11/28 06:46:23;;;;;;;11.70;10.30;;;2.60;54.50;;;;;;5110342;28;20819;-72
2023/11/28 06:48:49;;;;;;;11.30;10.20;;;2.70;54.80;;;;;;5110565;28;20449;-72
2023/11/28 06:51:15;;;;;;;11.55;10.35;;;2.70;54.90;;;;;;5110328;28;20380;-71
2023/11/28 06:53:41;;;;;;;10.10;9.10;;;2.70;55.30;;;;;;5110772;28;20380;-70
2023/11/28 06:56:08;;;;;;;11.60;10.40;;;2.70;52.60;;;;;;5110258;28;20878;-70
2023/11/28 06:58:34;;;;;;;10.40;9.48;;;2.70;54.40;;;;;;5110075;28;20379;-72
2023/11/28 07:00:59;;;;;;;10.23;9.13;;;2.70;53.60;;;;;;5109980;28;20376;-71
2023/11/28 07:03:26;;;;;;;12.15;9.32;;;2.70;53.00;;;;;;5110221;28;20373;-72
2023/11/28 07:05:53;;;;;;;9.57;8.60;;;2.70;53.90;;;;;;5110633;28;20461;-72
2023/11/28 07:08:18;;;;;;;10.25;9.15;;;2.60;53.50;;;;;;5111676;28;20384;-72
2023/11/28 07:10:44;;;;;;;9.10;8.20;;;2.60;53.10;;;;;;5096053;28;20388;-71
2023/11/28 07:13:09;;;;;;;10.13;8.00;;;2.40;52.90;;;;;;5114598;28;20380;-72
2023/11/28 07:15:35;;;;;;;8.90;7.80;;;2.40;54.00;;;;;;5094645;28;20392;-71
2023/11/28 07:18:01;;;;;;;8.70;7.80;;;2.40;53.20;;;;;;5110434;28;20423;-70
2023/11/28 07:20:28;;;;;;;8.15;7.35;;;2.30;53.20;;;;;;5113990;28;20376;-71
2023/11/28 07:22:54;;;;;;;8.25;7.35;;;2.30;53.10;;;;;;5113978;28;20379;-71
2023/11/28 07:25:20;;;;;;;8.80;7.53;;;2.20;51.80;;;;;;5114032;28;20380;-71
2023/11/28 07:27:45;;;;;;;7.90;7.10;;;2.20;53.10;;;;;;5113663;28;20470;-72
2023/11/28 07:30:11;;;;;;;9.00;7.57;;;2.20;53.60;;;;;;5114760;28;20388;-72
2023/11/28 07:32:36;;;;;;;7.75;6.95;;;2.10;54.50;;;;;;5117060;28;20380;-72
2023/11/28 07:35:03;;;;;;;7.30;6.60;;;2.10;53.10;;;;;;5118458;28;20403;-71
2023/11/28 07:37:29;;;;;;;7.35;6.55;;;2.10;53.90;;;;;;5117445;28;20404;-72
2023/11/28 07:39:55;;;;;;;8.10;7.30;;;2.10;54.60;;;;;;5117838;28;20376;-72
2023/11/28 07:42:20;;;;;;;8.02;6.90;;;2.10;54.80;;;;;;5113463;28;20395;-72
2023/11/28 07:44:46;;;;;;;7.47;6.78;;;2.20;53.90;;;;;;5113387;28;20395;-72
2023/11/28 07:47:11;;;;;;;8.27;7.20;;;2.00;53.70;;;;;;5112292;28;20585;-71
2023/11/28 07:49:37;;;;;;;7.37;6.67;;;2.00;55.00;;;;;;5113058;28;20414;-72
2023/11/28 07:52:03;;;;;;;7.35;6.65;;;2.10;55.10;;;;;;5112710;28;20403;-72
2023/11/28 07:54:28;;;;;;;6.90;6.30;;;2.10;53.40;;;;;;5112869;28;20391;-71
2023/11/28 07:56:54;;;;;;;7.20;6.50;;;2.10;52.40;;;;;;5112849;28;20398;-72
2023/11/28 07:59:19;;;;;;;7.97;7.17;;;2.10;53.40;;;;;;5113213;28;20862;-71
2023/11/28 08:01:45;;;;;;;6.68;6.07;;;2.20;52.40;;;;;;5112771;28;20379;-71
2023/11/28 08:04:11;;;;;;;6.20;5.70;;;2.10;53.00;;;;;;5092865;28;20431;-72
2023/11/28 08:06:37;;;;;;;6.55;6.00;;;2.20;53.60;;;;;;5094129;28;20388;-73
2023/11/28 08:09:04;;;;;;;6.22;5.70;;;2.20;53.10;;;;;;5111552;28;20393;-70
2023/11/28 08:11:29;;;;;;;7.00;6.20;;;2.10;52.50;;;;;;5112019;28;20396;-71
2023/11/28 08:13:55;;;;;;;6.32;5.72;;;2.10;54.60;;;;;;5113156;28;20389;-71
2023/11/28 08:16:23;;;;;;;7.20;6.10;;;2.10;53.70;;;;;;5101391;28;20409;-72
2023/11/28 08:18:49;;;;;;;6.80;6.10;;;2.00;53.80;;;;;;5098759;28;20392;-70
2023/11/28 08:21:14;;;;;;;7.18;6.10;;;2.00;55.50;;;;;;5112286;28;20389;-71
2023/11/28 08:23:40;;;;;;;6.07;5.57;;;2.10;55.00;;;;;;5111931;28;20862;-71
2023/11/28 08:26:06;;;;;;;9.63;6.27;;;2.10;54.40;;;;;;5112237;28;20384;-71
2023/11/28 08:28:31;;;;;;;6.55;5.95;;;2.10;54.30;;;;;;5112228;28;20384;-70
2023/11/28 08:30:57;;;;;;;6.40;5.90;;;2.00;53.60;;;;;;5105016;28;20501;-71
2023/11/28 08:33:23;;;;;;;6.70;6.00;;;1.90;55.30;;;;;;5092304;28;20390;-70
2023/11/28 08:35:48;;;;;;;7.17;6.33;;;1.80;57.00;;;;;;5092697;28;20390;-72
2023/11/28 08:38:14;;;;;;;6.70;6.10;;;1.80;57.80;;;;;;5112619;28;20397;-71
2023/11/28 08:40:40;;;;;;;7.35;6.63;;;1.80;57.30;;;;;;5112481;28;20415;-72
2023/11/28 08:43:05;;;;;;;7.10;6.07;;;1.70;59.20;;;;;;5112266;28;20415;-71
2023/11/28 08:45:31;;;;;;;7.60;6.90;;;1.80;58.10;;;;;;5112674;28;20467;-72
2023/11/28 08:47:56;;;;;;;6.70;6.10;;;1.80;58.60;;;;;;5112292;28;20448;-72
2023/11/28 08:50:22;;;;;;;6.40;5.80;;;1.80;56.70;;;;;;5095097;28;20408;-72
2023/11/28 08:52:48;;;;;;;7.80;6.65;;;1.90;57.00;;;;;;5111744;28;20404;-72
2023/11/28 08:55:13;;;;;;;7.75;6.25;;;1.90;58.40;;;;;;5112096;28;20469;-72
2023/11/28 08:57:39;;;;;;;6.65;6.03;;;2.00;57.30;;;;;;5094666;28;20422;-70
2023/11/28 09:00:06;;;;;;;7.32;6.63;;;2.00;56.70;;;;;;5112401;28;20798;-72
2023/11/28 09:02:32;;;;;;;7.25;6.40;;;1.90;57.50;;;;;;5113138;28;20377;-72
2023/11/28 09:04:58;;;;;;;6.50;6.00;;;2.10;57.30;;;;;;5112527;28;20865;-72
2023/11/28 09:07:24;;;;;;;6.20;5.70;;;2.10;55.60;;;;;;5112547;28;20451;-72
2023/11/28 09:09:49;;;;;;;7.10;6.40;;;2.20;55.70;;;;;;5111907;28;20391;-71
2023/11/28 09:12:16;;;;;;;6.60;6.00;;;2.20;56.20;;;;;;5106739;28;20382;-71
2023/11/28 09:14:42;;;;;;;8.20;6.50;;;2.20;57.00;;;;;;5092063;28;20378;-71
2023/11/28 09:17:08;;;;;;;6.37;5.77;;;2.40;54.30;;;;;;5091360;28;20485;-71
2023/11/28 09:19:33;;;;;;;6.20;5.60;;;2.50;53.70;;;;;;5091634;28;20574;-71
2023/11/28 09:22:01;;;;;;;5.80;5.30;;;2.50;54.00;;;;;;5072968;28;20382;-70
2023/11/28 09:24:27;;;;;;;6.95;5.70;;;2.50;52.00;;;;;;5091361;28;20378;-71
2023/11/28 09:26:53;;;;;;;6.20;5.53;;;2.50;52.30;;;;;;5096597;28;20388;-73
2023/11/28 09:29:22;;;;;;;6.10;5.50;;;2.50;51.40;;;;;;5113204;28;20381;-72
2023/11/28 09:31:48;;;;;;;5.60;5.10;;;2.60;51.90;;;;;;5111957;28;20878;-72
2023/11/28 09:34:14;;;;;;;6.40;4.90;;;2.60;49.80;;;;;;5106538;28;20390;-72
2023/11/28 09:36:39;;;;;;;5.05;4.63;;;2.60;47.90;;;;;;5095637;28;20405;-73
2023/11/28 09:39:05;;;;;;;5.85;4.90;;;2.60;48.60;;;;;;5094275;28;20477;-73
2023/11/28 09:41:35;;;;;;;5.80;4.57;;;2.80;47.50;;;;;;5108325;28;20381;-70
2023/11/28 09:44:01;;;;;;;5.40;4.40;;;3.10;46.30;;;;;;5112259;28;20441;-70
2023/11/28 09:46:28;;;;;;;4.50;4.10;;;3.20;45.90;;;;;;5109038;28;20432;-71
2023/11/28 09:48:56;;;;;;;5.30;4.20;;;3.40;44.30;;;;;;5112052;28;20384;-72
2023/11/28 09:51:23;;;;;;;4.00;3.70;;;3.50;43.30;;;;;;5111829;28;20490;-71
2023/11/28 09:53:55;;;;;;;4.65;4.15;;;3.50;42.20;;;;;;5097156;28;20401;-71
2023/11/28 09:56:22;;;;;;;4.60;4.07;;;3.60;43.00;;;;;;5099858;28;20385;-71
2023/11/28 09:58:54;;;;;;;4.55;4.15;;;3.60;41.20;;;;;;5111241;28;20817;-71
2023/11/28 10:01:22;;;;;;;4.67;4.27;;;3.70;40.90;;;;;;5094683;28;20390;-72
2023/11/28 10:03:47;;;;;;;4.63;4.22;;;3.80;41.30;;;;;;5090677;28;20389;-71
2023/11/28 10:06:18;;;;;;;4.43;4.03;;;3.80;40.30;;;;;;5109404;28;20376;-71
2023/11/28 10:08:49;;;;;;;4.43;4.13;;;3.70;40.50;;;;;;5111145;28;20391;-71
2023/11/28 10:11:16;;;;;;;5.68;5.10;;;3.60;39.80;;;;;;5110871;28;20412;-70
2023/11/28 10:13:47;;;;;;;5.80;5.10;;;3.50;40.40;;;;;;5104565;28;20382;-70
2023/11/28 10:16:14;;;;;;;5.00;4.60;;;3.40;41.10;;;;;;5090571;28;20880;-70
2023/11/28 10:18:48;;;;;;;5.18;4.78;;;3.50;41.40;;;;;;5090408;28;20390;-70
2023/11/28 10:21:16;;;;;;;5.07;4.57;;;3.40;40.70;;;;;;5091196;28;20378;-70
2023/11/28 10:23:48;;;;;;;5.10;4.60;;;3.30;40.10;;;;;;5072363;28;20499;-71
2023/11/28 10:26:14;;;;;;;5.90;5.40;;;3.40;41.20;;;;;;5089903;28;20374;-71
2023/11/28 10:28:40;;;;;;;5.10;4.60;;;3.50;41.50;;;;;;5090239;28;20385;-71
2023/11/28 10:31:06;;;;;;;4.65;4.25;;;3.60;40.10;;;;;;5091451;28;20392;-73
2023/11/28 10:33:32;;;;;;;4.82;4.35;;;3.80;39.00;;;;;;5111112;28;20430;-70
2023/11/28 10:35:58;;;;;;;7.27;6.27;;;3.80;38.60;;;;;;5110654;28;20380;-71
2023/11/28 10:38:26;;;;;;;9.02;5.00;;;3.90;39.00;;;;;;5110628;28;20419;-71
2023/11/28 10:40:53;;;;;;;6.55;5.10;;;3.80;39.00;;;;;;5109928;28;20395;-71
2023/11/28 10:43:19;;;;;;;5.07;4.68;;;4.00;39.40;;;;;;5110875;28;20399;-71
2023/11/28 10:45:45;;;;;;;5.13;4.63;;;4.00;39.80;;;;;;5104400;28;20883;-71
2023/11/28 10:48:11;;;;;;;6.03;5.43;;;3.70;40.40;;;;;;5094683;28;20405;-70
2023/11/28 10:50:37;;;;;;;13.95;7.00;;;3.50;41.90;;;;;;5110151;28;20396;-71
2023/11/28 10:53:06;;;;;;;7.43;6.10;;;3.40;44.20;;;;;;5110371;28;20411;-71
2023/11/28 10:55:40;;;;;;;6.30;4.90;;;3.40;44.10;;;;;;5098309;28;20401;-71
2023/11/28 10:58:11;;;;;;;6.03;5.43;;;3.70;44.10;;;;;;5113437;28;20812;-71
2023/11/28 11:00:38;;;;;;;7.00;6.30;;;3.80;42.90;;;;;;5114134;28;20376;-71
2023/11/28 11:03:04;;;;;;;5.57;5.07;;;3.70;42.00;;;;;;5103289;28;20740;-70
2023/11/28 11:05:31;;;;;;;6.85;6.10;;;3.70;42.20;;;;;;5102061;28;20479;-70
2023/11/28 11:07:57;;;;;;;6.00;5.50;;;3.70;42.90;;;;;;5113431;28;20380;-70
2023/11/28 11:10:23;;;;;;;6.70;5.20;;;3.90;42.20;;;;;;5114072;28;20805;-71
2023/11/28 11:13:03;;;;;;;6.07;5.20;;;3.80;41.80;;;;;;5108640;28;20445;-71
2023/11/28 11:15:37;;;;;;;6.60;5.90;;;3.90;42.50;;;;;;5114782;28;20403;-71
2023/11/28 11:18:17;;;;;;;6.47;5.45;;;4.00;42.50;;;;;;5114724;28;20447;-73
2023/11/28 11:20:48;;;;;;;5.47;4.95;;;3.90;41.70;;;;;;5111769;28;20403;-73
2023/11/28 11:23:16;;;;;;;6.00;4.75;;;3.80;40.60;;;;;;5101944;28;20385;-72
2023/11/28 11:25:45;;;;;;;6.40;5.30;;;3.80;41.10;;;;;;5097432;28;20395;-71
2023/11/28 11:28:10;;;;;;;6.90;6.20;;;3.90;40.20;;;;;;5111411;28;20917;-71
2023/11/28 11:30:37;;;;;;;5.43;4.32;;;3.90;39.80;;;;;;5111130;28;20419;-71
2023/11/28 11:33:07;;;;;;;6.72;4.63;;;3.90;38.00;;;;;;5112520;28;20404;-72
2023/11/28 11:36:19;;;;;;;7.07;4.30;;;4.00;38.60;;;;;;5105813;28;20394;-71
2023/11/28 11:38:49;;;;;;;4.60;4.20;;;3.90;37.80;;;;;;5105849;28;20392;-72
2023/11/28 11:41:16;;;;;;;4.70;4.20;;;4.00;38.10;;;;;;5113958;28;20388;-72
2023/11/28 11:43:44;;;;;;;4.70;4.30;;;4.00;36.10;;;;;;5115921;28;20377;-72
2023/11/28 11:46:18;;;;;;;5.20;4.70;;;4.00;36.50;;;;;;5112986;28;20411;-71
2023/11/28 11:48:44;;;;;;;5.70;4.20;;;4.00;35.80;;;;;;5112970;28;20430;-72
2023/11/28 11:53:44;;;;;;;4.38;4.05;;;3.80;36.40;;;;;;5071093;28;20428;-72
2023/11/28 11:56:10;;;;;;;4.70;4.20;;;3.70;35.10;;;;;;5073253;28;20392;-71
2023/11/28 11:58:37;;;;;;;4.45;4.00;;;3.50;35.90;;;;;;5073121;28;20384;-71
2023/11/28 12:01:04;;;;;;;4.80;4.20;;;3.50;36.20;;;;;;5072951;28;20410;-71
2023/11/28 12:03:29;;;;;;;5.03;4.18;;;3.50;35.90;;;;;;5092927;28;20887;-72
2023/11/28 12:05:59;;;;;;;4.30;3.90;;;3.50;35.90;;;;;;5091826;28;20397;-72
2023/11/28 12:08:26;;;;;;;5.47;4.90;;;3.40;35.30;;;;;;5088126;28;20390;-70
2023/11/28 12:11:06;;;;;;;4.95;3.90;;;3.50;37.20;;;;;;5092817;28;20386;-73
2023/11/28 12:13:31;;;;;;;3.95;3.60;;;3.70;36.10;;;;;;5088077;28;20395;-71
2023/11/28 12:16:02;;;;;;;4.80;3.90;;;3.70;34.80;;;;;;5088223;28;20474;-71
2023/11/28 12:18:28;;;;;;;3.90;3.60;;;3.80;33.50;;;;;;5073043;28;20399;-73
2023/11/28 12:20:54;;;;;;;4.00;3.70;;;3.80;32.10;;;;;;5087000;28;20402;-71
2023/11/28 12:23:19;;;;;;;6.43;4.13;;;3.90;31.60;;;;;;5092969;28;20743;-71
2023/11/28 12:25:45;;;;;;;4.10;3.70;;;3.90;31.70;;;;;;5081434;28;20397;-77
2023/11/28 12:28:10;;;;;;;4.20;3.80;;;4.20;31.50;;;;;;5092088;28;20378;-72
2023/11/28 12:30:36;;;;;;;4.37;3.97;;;4.40;31.70;;;;;;5093609;28;20386;-72
2023/11/28 12:33:02;;;;;;;8.38;4.05;;;4.60;30.80;;;;;;5097679;28;20382;-72
2023/11/28 12:35:30;;;;;;;4.20;3.60;;;4.50;30.80;;;;;;5097666;28;20519;-73
2023/11/28 12:37:57;;;;;;;5.38;4.00;;;4.60;31.10;;;;;;5093339;28;20479;-73
2023/11/28 12:40:23;;;;;;;4.70;4.20;;;4.60;30.90;;;;;;5093202;28;20382;-73
2023/11/28 12:42:49;;;;;;;9.93;4.25;;;4.40;31.30;;;;;;5094255;28;20465;-73
2023/11/28 12:45:18;;;;;;;5.83;4.10;;;4.40;31.10;;;;;;5095303;28;20903;-73
2023/11/28 12:47:44;;;;;;;8.13;4.25;;;4.40;31.00;;;;;;5094780;28;20388;-73
2023/11/28 12:50:10;;;;;;;4.60;4.20;;;4.50;31.60;;;;;;5103848;28;20375;-73
2023/11/28 12:52:35;;;;;;;3.97;3.58;;;4.50;31.40;;;;;;5105842;28;20764;-73